(°C)
26°
25°
25°
24°
24°
23°
22°
(°C)
23°
24°
24°
24°
24°
24°
23°
J
JJV
JV
J
JJZ
JJV
JZ
(km/h)
13-20
9-16
9-14
10-16
11-19
10-23
10-23
(mm)
0
0
0
0
0
1.4
1.8
(%)
1
2
19
25
44
63
78

Sluneční výška

/ 10.9°
sun-icon
UV 4
05:05
20:59
Ubývající měsíc (224°)
22:54
08:49

METAR pro 52.53°S 31.02°V (UMGG)

Čas Podmínky Teplota/
Rosný bod
Vítr Viditelnost Počasí Oblaky Tlak Změna Nezpracované
VFR 26°C / 17°C 140º 10kt >10km - Scattered Clouds 5000ft 1016 No Significant change UMGG 271600Z 14005MPS 9999 SCT050CB BKN100 26/17 Q1016 R28/D NOSIG
VFR 26°C / 17°C 140º 12kt >10km - Scattered Clouds 4600ft 1016 No Significant change UMGG 271530Z 14006MPS 9999 SCT046CB BKN100 26/17 Q1016 R28/CLRD// NOSIG
VFR 26°C / 17°C 150º 12kt >10km - Scattered Clouds 4500ft 1016 No Significant change UMGG 271500Z 15006MPS 9999 SCT045CB BKN100 26/17 Q1016 R28/D NOSIG
VFR 27°C / 17°C 120º 12kt >10km - Scattered Clouds 5000ft 1017 No Significant change UMGG 271430Z 12006MPS 9999 SCT050CB BKN100 27/17 Q1017 R28/CLRD// NOSIG
VFR 27°C / 17°C 130º 10kt >10km - Scattered Clouds 5000ft 1017 No Significant change UMGG 271400Z 13005MPS 9999 SCT050CB BKN100 27/17 Q1017 R28/D NOSIG
VFR 30°C / 15°C 160º 12kt >10km - Scattered Clouds 5000ft 1017 No Significant change UMGG 271330Z 16006MPS 9999 SCT050CB BKN100 30/15 Q1017 R28/CLRD// NOSIG
VFR 30°C / 15°C 180º 10kt >10km - Scattered Clouds 5000ft 1018 No Significant change UMGG 271300Z 18005MPS 9999 SCT050CB BKN100 30/15 Q1018 R28/CLRD// NOSIG
VFR 29°C / 14°C 190º 10kt Gust 16kt >10km - Scattered Clouds 4400ft 1018 No Significant change UMGG 271230Z 19005G08MPS 9999 SCT044CB BKN100 29/14 Q1018 R28/CLRD// NOSIG
VFR 29°C / 14°C 210º 10kt Gust 16kt >10km - Scattered Clouds 6000ft 1018 No Significant change UMGG 271200Z 21005G08MPS 9999 SCT060CB BKN100 29/14 Q1018 R28/D NOSIG
VFR 30°C / 14°C 190º 10kt Gust 16kt >10km - Scattered Clouds 5600ft 1018 No Significant change UMGG 271130Z 19005G08MPS 9999 SCT056CB BKN100 30/14 Q1018 R28/CLRD// NOSIG
VFR 30°C / 14°C 190º 12kt Gust 17kt >10km - Scattered Clouds 5600ft 1018 No Significant change UMGG 271100Z 19006G09MPS 9999 SCT056CB BKN100 30/14 Q1018 R10/D NOSIG
VFR 30°C / 13°C 180º 12kt Gust 17kt >10km - Scattered Clouds 5600ft 1019 No Significant change UMGG 271030Z 18006G09MPS 9999 SCT056CB BKN100 30/13 Q1019 R10/CLRD// NOSIG
VFR 30°C / 13°C 170º 12kt Gust 17kt >10km - Scattered Clouds 5400ft 1019 No Significant change UMGG 271000Z 17006G09MPS 9999 SCT054CB BKN100 30/13 Q1019 R10/CLRD// NOSIG
VFR 30°C / 15°C 160º 12kt Gust 17kt >10km - Scattered Clouds 5000ft 1019 No Significant change UMGG 270930Z 16006G09MPS 9999 SCT050CB BKN100 30/15 Q1019 R10/CLRD// NOSIG
VFR 30°C / 15°C 150º 12kt Gust 17kt >10km - Clouds and Visibility OK 1019 No Significant change UMGG 270900Z 15006G09MPS CAVOK 30/15 Q1019 R10/D NOSIG
VFR 29°C / 15°C 150º 10kt Gust 16kt >10km - Clouds and Visibility OK 1019 No Significant change UMGG 270830Z 15005G08MPS CAVOK 29/15 Q1019 R10/D NOSIG
VFR 29°C / 15°C 150º 10kt Gust 16kt >10km - Clouds and Visibility OK 1020 No Significant change UMGG 270800Z 15005G08MPS CAVOK 29/15 Q1020 R10/D NOSIG
VFR 27°C / 16°C 160º 12kt >10km - Clouds and Visibility OK 1020 No Significant change UMGG 270730Z 16006MPS CAVOK 27/16 Q1020 R10/D NOSIG
VFR 27°C / 16°C 160º 14kt >10km - Clouds and Visibility OK 1020 No Significant change UMGG 270700Z 16007MPS CAVOK 27/16 Q1020 R10/D NOSIG
VFR 24°C / 16°C 160º 8kt >10km - Clouds and Visibility OK 1020 No Significant change UMGG 270630Z 16004MPS CAVOK 24/16 Q1020 R10/D NOSIG
VFR 24°C / 16°C 140º 8kt >10km - Clouds and Visibility OK 1020 No Significant change UMGG 270600Z 14004MPS CAVOK 24/16 Q1020 R10/D NOSIG
VFR 21°C / 15°C 140º 8kt >10km - Clouds and Visibility OK 1020 No Significant change UMGG 270530Z 14004MPS CAVOK 21/15 Q1020 R10/CLRD// NOSIG
VFR 21°C / 15°C 140º 6kt >10km - Clouds and Visibility OK 1020 No Significant change UMGG 270500Z 14003MPS CAVOK 21/15 Q1020 R10/CLRD// NOSIG
VFR 19°C / 15°C 150º 8kt >10km - Few Clouds 6000ft 1020 No Significant change UMGG 270430Z 15004MPS 9999 FEW060CB BKN100 19/15 Q1020 R10/CLRD// NOSIG

VFR

26°C / 17°C

[Víc]
Vítr 140º 10kt
Viditelnost >10km
Počasí -
Oblaky Scattered Clouds 5000ft
Tlak 1016
Změna No Significant change
Nezpracované UMGG 271600Z 14005MPS 9999 SCT050CB BKN100 26/17 Q1016 R28/D NOSIG

VFR

26°C / 17°C

[Víc]
Vítr 140º 12kt
Viditelnost >10km
Počasí -
Oblaky Scattered Clouds 4600ft
Tlak 1016
Změna No Significant change
Nezpracované UMGG 271530Z 14006MPS 9999 SCT046CB BKN100 26/17 Q1016 R28/CLRD// NOSIG

VFR

26°C / 17°C

[Víc]
Vítr 150º 12kt
Viditelnost >10km
Počasí -
Oblaky Scattered Clouds 4500ft
Tlak 1016
Změna No Significant change
Nezpracované UMGG 271500Z 15006MPS 9999 SCT045CB BKN100 26/17 Q1016 R28/D NOSIG

VFR

27°C / 17°C

[Víc]
Vítr 120º 12kt
Viditelnost >10km
Počasí -
Oblaky Scattered Clouds 5000ft
Tlak 1017
Změna No Significant change
Nezpracované UMGG 271430Z 12006MPS 9999 SCT050CB BKN100 27/17 Q1017 R28/CLRD// NOSIG

VFR

27°C / 17°C

[Víc]
Vítr 130º 10kt
Viditelnost >10km
Počasí -
Oblaky Scattered Clouds 5000ft
Tlak 1017
Změna No Significant change
Nezpracované UMGG 271400Z 13005MPS 9999 SCT050CB BKN100 27/17 Q1017 R28/D NOSIG

VFR

30°C / 15°C

[Víc]
Vítr 160º 12kt
Viditelnost >10km
Počasí -
Oblaky Scattered Clouds 5000ft
Tlak 1017
Změna No Significant change
Nezpracované UMGG 271330Z 16006MPS 9999 SCT050CB BKN100 30/15 Q1017 R28/CLRD// NOSIG

VFR

30°C / 15°C

[Víc]
Vítr 180º 10kt
Viditelnost >10km
Počasí -
Oblaky Scattered Clouds 5000ft
Tlak 1018
Změna No Significant change
Nezpracované UMGG 271300Z 18005MPS 9999 SCT050CB BKN100 30/15 Q1018 R28/CLRD// NOSIG

VFR

29°C / 14°C

[Víc]
Vítr 190º 10kt Gust 16kt
Viditelnost >10km
Počasí -
Oblaky Scattered Clouds 4400ft
Tlak 1018
Změna No Significant change
Nezpracované UMGG 271230Z 19005G08MPS 9999 SCT044CB BKN100 29/14 Q1018 R28/CLRD// NOSIG

VFR

29°C / 14°C

[Víc]
Vítr 210º 10kt Gust 16kt
Viditelnost >10km
Počasí -
Oblaky Scattered Clouds 6000ft
Tlak 1018
Změna No Significant change
Nezpracované UMGG 271200Z 21005G08MPS 9999 SCT060CB BKN100 29/14 Q1018 R28/D NOSIG

VFR

30°C / 14°C

[Víc]
Vítr 190º 10kt Gust 16kt
Viditelnost >10km
Počasí -
Oblaky Scattered Clouds 5600ft
Tlak 1018
Změna No Significant change
Nezpracované UMGG 271130Z 19005G08MPS 9999 SCT056CB BKN100 30/14 Q1018 R28/CLRD// NOSIG

VFR

30°C / 14°C

[Víc]
Vítr 190º 12kt Gust 17kt
Viditelnost >10km
Počasí -
Oblaky Scattered Clouds 5600ft
Tlak 1018
Změna No Significant change
Nezpracované UMGG 271100Z 19006G09MPS 9999 SCT056CB BKN100 30/14 Q1018 R10/D NOSIG

VFR

30°C / 13°C

[Víc]
Vítr 180º 12kt Gust 17kt
Viditelnost >10km
Počasí -
Oblaky Scattered Clouds 5600ft
Tlak 1019
Změna No Significant change
Nezpracované UMGG 271030Z 18006G09MPS 9999 SCT056CB BKN100 30/13 Q1019 R10/CLRD// NOSIG

VFR

30°C / 13°C

[Víc]
Vítr 170º 12kt Gust 17kt
Viditelnost >10km
Počasí -
Oblaky Scattered Clouds 5400ft
Tlak 1019
Změna No Significant change
Nezpracované UMGG 271000Z 17006G09MPS 9999 SCT054CB BKN100 30/13 Q1019 R10/CLRD// NOSIG

VFR

30°C / 15°C

[Víc]
Vítr 160º 12kt Gust 17kt
Viditelnost >10km
Počasí -
Oblaky Scattered Clouds 5000ft
Tlak 1019
Změna No Significant change
Nezpracované UMGG 270930Z 16006G09MPS 9999 SCT050CB BKN100 30/15 Q1019 R10/CLRD// NOSIG

VFR

30°C / 15°C

[Víc]
Vítr 150º 12kt Gust 17kt
Viditelnost >10km
Počasí -
Oblaky Clouds and Visibility OK
Tlak 1019
Změna No Significant change
Nezpracované UMGG 270900Z 15006G09MPS CAVOK 30/15 Q1019 R10/D NOSIG

VFR

29°C / 15°C

[Víc]
Vítr 150º 10kt Gust 16kt
Viditelnost >10km
Počasí -
Oblaky Clouds and Visibility OK
Tlak 1019
Změna No Significant change
Nezpracované UMGG 270830Z 15005G08MPS CAVOK 29/15 Q1019 R10/D NOSIG

VFR

29°C / 15°C

[Víc]
Vítr 150º 10kt Gust 16kt
Viditelnost >10km
Počasí -
Oblaky Clouds and Visibility OK
Tlak 1020
Změna No Significant change
Nezpracované UMGG 270800Z 15005G08MPS CAVOK 29/15 Q1020 R10/D NOSIG

VFR

27°C / 16°C

[Víc]
Vítr 160º 12kt
Viditelnost >10km
Počasí -
Oblaky Clouds and Visibility OK
Tlak 1020
Změna No Significant change
Nezpracované UMGG 270730Z 16006MPS CAVOK 27/16 Q1020 R10/D NOSIG

VFR

27°C / 16°C

[Víc]
Vítr 160º 14kt
Viditelnost >10km
Počasí -
Oblaky Clouds and Visibility OK
Tlak 1020
Změna No Significant change
Nezpracované UMGG 270700Z 16007MPS CAVOK 27/16 Q1020 R10/D NOSIG

VFR

24°C / 16°C

[Víc]
Vítr 160º 8kt
Viditelnost >10km
Počasí -
Oblaky Clouds and Visibility OK
Tlak 1020
Změna No Significant change
Nezpracované UMGG 270630Z 16004MPS CAVOK 24/16 Q1020 R10/D NOSIG

VFR

24°C / 16°C

[Víc]
Vítr 140º 8kt
Viditelnost >10km
Počasí -
Oblaky Clouds and Visibility OK
Tlak 1020
Změna No Significant change
Nezpracované UMGG 270600Z 14004MPS CAVOK 24/16 Q1020 R10/D NOSIG

VFR

21°C / 15°C

[Víc]
Vítr 140º 8kt
Viditelnost >10km
Počasí -
Oblaky Clouds and Visibility OK
Tlak 1020
Změna No Significant change
Nezpracované UMGG 270530Z 14004MPS CAVOK 21/15 Q1020 R10/CLRD// NOSIG

VFR

21°C / 15°C

[Víc]
Vítr 140º 6kt
Viditelnost >10km
Počasí -
Oblaky Clouds and Visibility OK
Tlak 1020
Změna No Significant change
Nezpracované UMGG 270500Z 14003MPS CAVOK 21/15 Q1020 R10/CLRD// NOSIG

VFR

19°C / 15°C

[Víc]
Vítr 150º 8kt
Viditelnost >10km
Počasí -
Oblaky Few Clouds 6000ft
Tlak 1020
Změna No Significant change
Nezpracované UMGG 270430Z 15004MPS 9999 FEW060CB BKN100 19/15 Q1020 R10/CLRD// NOSIG

TAF pro 52.53°S 31.02°V (UMGG)

From till


Maximum Temperature 31ºC on . Minimum Temperature 18ºC on .
From till Wind 170º 14kt. Visibility 10km or more. Broken Clouds 3000ft.
Temporarly from till Wind 190º 17kt. Gust 27kt. Visibility 2000m. Showers Rain . Broken Clouds 600ft. Broken Clouds 3500ft.
With 40% probability, Temporarly from till Wind variable 27kt. Visibility 2000m. Thunderstorm Rain Squalls . Broken Clouds 500ft. Broken Clouds 3500ft.
Temporarly from till Wind variable 27kt. Visibility 2000m. Thunderstorm Rain Squalls . Broken Clouds 600ft. Broken Clouds 3500ft.
Temporarly from till Wind variable 27kt. Visibility 1200m. Thunderstorm Rain Squalls . Broken Clouds 500ft. Broken Clouds 3000ft.
Becoming from till Wind 260º 12kt. Gust 21kt. Visibility 10km or more. Broken Clouds 3000ft.
Temporarly from till Wind 280º 17kt. Gust 27kt. Broken Clouds 3500ft.

Nezpracované: TAF UMGG 271101Z 2712/2812 17007MPS 9999 BKN030 TX31/2713Z TN18/2802Z TEMPO 2712/2714 19009G14MPS 2000 SHRA BKN006 BKN035CB PROB40 TEMPO 2712/2714 VRB14MPS 2000 TSRA SQ BKN005 BKN035CB TEMPO 2714/2718 VRB14MPS 2000 TSRA SQ BKN006 BKN035CB TEMPO 2718/2806 VRB14MPS 1200 TSRA SQ BKN005 BKN030CB BECMG 2806/2808 26006G11MPS TEMPO 2808/2812 28009G14MPS BKN035CB

Aktuální snímky ze satelitu a srážky pro 52.53°S 31.02°V

Značka polohy je umístěna na 52.53°S 31.02°V. [Víc]

Satelitní snímek v reálném čase kombinuje viditelné světlo během dne s infračerveným zářením během noci. V noci není obraz tmavý, protože infračervené záření dokáže detekovat teplotní rozdíly. Nízká oblačnost a mlha se bohužel těžko odlišují od pozemních teplot, a proto mohou být během noci téměř neviditelné. Satelitní snímky z Meteosatu pro Evropu jsou aktualizovány v reálném čase každých 5 minut. Snímky z GOES-16/GOES-17 (Severní a Jižní Amerika) a Himawari (Asie) jsou aktualizovány) každých 10 minut.

Copyright 2021 EUMETSAT / meteoblue. / Copyright 2021 meteoblue

Radar a krátkodobá předpověď srážek pro 52.53°S 31.02°V

Mrholení
Slabé
Mírná
Silné
Velmi silné
Kroupy

Značka lokality je umístněna na 52.53°S 31.02°V. Tato animace ukazuje srážky zaznamenané radarem za poslední hodinu a také 1h předpověď. Mrholení nebo slabé sněžení mohou být pro radar neviditelné. Intenzita srážek používá barevní kód od světle modré po tmavě fialovou.